source [weather.noaa.gov]
EDDP 180720Z 18016KT 9999 -RA FEW021 SCT033 OVC100 02/00 Q0998 TEMPO 18015G25KT

EDDC 180720Z 21013KT CAVOK 02/M02 Q1001 R04/29//95 NOSIG

EDDE 180720Z 19018KT 9999 -SNRA SCT016 SCT050 OVC100 01/00 Q0996 R88/590593 TEMPO 20020G30KT